Time;durP1;ratioP1;P1;durP2;ratioP2;P2;SDS_P1;SDS_P2;PMS_P1;PMS_P2;Temp;Humidity;BMP_temperature;BMP_pressure;BME280_temperature;BME280_humidity;BME280_pressure;Samples;Min_cycle;Max_cycle;Signal;HPM_P1;HPM_P2
2023/10/29 00:00:59;;;;;;;3.15;1.90;;;13.00;67.80;;;14.60;51.04;96229.50;5013035;28;20363;-46
2023/10/29 00:03:26;;;;;;;3.97;2.25;;;13.00;67.80;;;14.57;50.96;96235.28;5012986;28;20053;-45
2023/10/29 00:05:54;;;;;;;3.00;1.98;;;13.00;67.50;;;14.55;51.04;96235.47;5013293;28;20045;-46
2023/10/29 00:08:22;;;;;;;3.28;1.88;;;13.00;67.70;;;14.55;50.91;96232.81;5013470;28;20060;-49
2023/10/29 00:10:49;;;;;;;2.80;2.17;;;12.90;67.80;;;14.50;50.97;96232.66;5012232;28;20049;-45
2023/10/29 00:13:17;;;;;;;2.55;1.88;;;12.90;67.90;;;14.47;51.19;96234.97;5013017;28;20049;-42
2023/10/29 00:15:44;;;;;;;3.42;2.05;;;12.90;68.20;;;14.43;51.30;96233.75;5012908;28;20045;-44
2023/10/29 00:18:12;;;;;;;3.85;1.90;;;12.80;68.10;;;14.37;51.40;96241.63;5012833;28;20050;-45
2023/10/29 00:20:40;;;;;;;2.00;1.40;;;12.80;68.50;;;14.33;51.43;96236.94;5012681;28;20068;-45
2023/10/29 00:23:08;;;;;;;5.70;2.40;;;12.70;68.60;;;14.31;51.42;96237.16;5004712;28;20050;-48
2023/10/29 00:25:35;;;;;;;3.03;1.73;;;12.70;68.60;;;14.30;51.52;96226.66;5012070;28;20413;-43
2023/10/29 00:28:03;;;;;;;2.63;1.52;;;12.70;68.70;;;14.33;51.51;96228.91;5011299;28;20054;-46
2023/10/29 00:30:31;;;;;;;4.18;2.05;;;12.70;68.50;;;14.34;51.43;96223.31;5011318;28;20053;-47
2023/10/29 00:32:59;;;;;;;7.55;1.70;;;12.70;69.00;;;14.36;51.52;96218.59;5012720;28;20504;-45
2023/10/29 00:35:26;;;;;;;5.78;1.83;;;12.70;68.70;;;14.33;51.40;96202.94;5012754;28;20053;-44
2023/10/29 00:37:54;;;;;;;4.05;2.03;;;12.80;68.20;;;14.34;51.26;96209.13;5012560;28;20049;-45
2023/10/29 00:40:22;;;;;;;3.70;2.35;;;12.80;67.80;;;14.35;51.32;96219.59;5010766;28;20066;-47
2023/10/29 00:42:49;;;;;;;7.45;2.70;;;12.80;68.00;;;14.35;51.30;96224.97;5010932;28;20046;-45
2023/10/29 00:45:17;;;;;;;7.30;3.75;;;12.90;67.90;;;14.32;51.34;96230.75;5012551;28;20429;-47
2023/10/29 00:47:45;;;;;;;8.82;3.95;;;12.90;67.60;;;14.31;51.35;96230.97;5012258;28;20048;-44
2023/10/29 00:50:13;;;;;;;6.53;2.95;;;12.80;67.50;;;14.32;51.37;96222.72;5002898;28;20448;-44
2023/10/29 00:52:40;;;;;;;4.10;2.30;;;12.80;67.50;;;14.33;51.14;96221.69;5018499;28;20061;-43
2023/10/29 00:55:09;;;;;;;2.28;1.45;;;12.90;67.20;;;14.36;51.15;96217.75;5019434;28;20065;-47
2023/10/29 00:57:37;;;;;;;5.10;1.40;;;12.90;67.10;;;14.37;51.38;96214.84;5012117;28;20050;-44
2023/10/29 01:00:06;;;;;;;2.50;1.30;;;12.90;66.70;;;14.41;51.22;96211.75;5001883;28;20049;-45
2023/10/29 01:02:34;;;;;;;3.38;2.38;;;13.00;67.00;;;14.47;51.01;96214.34;5012280;28;20513;-45
2023/10/29 01:05:04;;;;;;;2.50;1.40;;;13.00;66.80;;;14.45;51.07;96211.06;5012133;28;20050;-44
2023/10/29 01:07:33;;;;;;;4.35;1.95;;;13.00;66.80;;;14.52;51.10;96202.97;5012016;28;20422;-46
2023/10/29 01:10:00;;;;;;;3.00;1.52;;;13.00;66.80;;;14.55;50.99;96207.88;5002307;28;20445;-46
2023/10/29 01:12:29;;;;;;;12.95;2.00;;;13.10;66.60;;;14.55;50.74;96203.34;5002631;28;20053;-43
2023/10/29 01:15:04;;;;;;;2.13;1.27;;;13.10;66.60;;;14.55;50.82;96205.22;5068225;28;20398;-43
2023/10/29 01:17:32;;;;;;;2.40;1.73;;;13.10;66.70;;;14.58;50.89;96202.13;5048442;28;20413;-44
2023/10/29 01:20:03;;;;;;;1.70;1.30;;;13.10;66.80;;;14.61;50.60;96199.00;5046568;28;20131;-44
2023/10/29 01:22:33;;;;;;;3.72;1.33;;;13.00;66.20;;;14.62;50.42;96184.56;5046681;28;20041;-47
2023/10/29 01:25:05;;;;;;;3.03;1.25;;;13.10;66.50;;;14.63;50.48;96182.72;5047946;28;20037;-47
2023/10/29 01:27:34;;;;;;;4.47;1.50;;;13.10;67.10;;;14.65;50.47;96185.97;5046994;28;20048;-48
2023/10/29 01:30:02;;;;;;;3.58;1.45;;;13.10;66.20;;;14.63;50.59;96183.53;5046663;28;20504;-44
2023/10/29 01:32:30;;;;;;;2.10;1.70;;;13.10;65.90;;;14.63;50.38;96178.16;5046557;28;20048;-43
2023/10/29 01:34:58;;;;;;;2.50;1.40;;;13.10;65.90;;;14.63;50.44;96177.34;5038240;28;20056;-44
2023/10/29 01:37:25;;;;;;;2.10;1.38;;;13.10;66.10;;;14.58;50.26;96180.72;5046412;28;20138;-43
2023/10/29 01:39:53;;;;;;;2.25;1.33;;;13.00;65.70;;;14.55;50.24;96170.41;5045939;28;20053;-44
2023/10/29 01:42:21;;;;;;;1.90;1.33;;;13.10;65.40;;;14.56;50.46;96169.38;5046400;28;20053;-44
2023/10/29 01:44:49;;;;;;;2.53;1.10;;;13.00;66.00;;;14.55;50.24;96160.50;5047595;28;20037;-42
2023/10/29 01:47:16;;;;;;;4.03;1.90;;;13.10;66.20;;;14.56;50.52;96146.09;5038813;28;20045;-46
2023/10/29 01:49:44;;;;;;;4.28;2.00;;;13.10;66.00;;;14.56;50.56;96147.94;5029308;28;20041;-44
2023/10/29 01:52:12;;;;;;;4.00;1.50;;;13.10;66.20;;;14.50;50.60;96138.94;5046324;28;20049;-43
2023/10/29 01:54:39;;;;;;;3.10;1.50;;;13.10;66.00;;;14.49;50.69;96141.84;5045678;28;20052;-43
2023/10/29 01:57:07;;;;;;;2.40;1.52;;;13.10;66.10;;;14.47;50.49;96134.03;5045922;28;20194;-44
2023/10/29 01:59:35;;;;;;;2.85;1.50;;;13.10;66.10;;;14.46;50.46;96132.41;5046013;28;20052;-44
2023/10/29 02:02:03;;;;;;;2.75;1.52;;;13.00;66.20;;;14.43;50.52;96132.03;5046236;28;20053;-44
2023/10/29 02:04:32;;;;;;;3.95;1.52;;;13.00;66.40;;;14.43;50.63;96134.69;5029453;28;20045;-45
2023/10/29 02:06:59;;;;;;;2.05;1.30;;;13.00;66.20;;;14.42;50.66;96139.22;5045347;28;20045;-43
2023/10/29 02:09:28;;;;;;;1.63;1.10;;;13.00;66.50;;;14.38;50.59;96133.50;5045710;28;20041;-43
2023/10/29 02:11:55;;;;;;;2.97;1.63;;;13.00;66.30;;;14.35;50.69;96127.78;5046904;28;20037;-46
2023/10/29 02:14:23;;;;;;;4.85;2.92;;;12.90;66.30;;;14.33;50.74;96127.19;5045816;28;20052;-43
2023/10/29 02:16:51;;;;;;;2.70;1.30;;;12.90;66.20;;;14.32;50.72;96125.53;5029295;28;20045;-44
2023/10/29 02:19:19;;;;;;;3.72;1.67;;;12.90;66.20;;;14.28;50.85;96124.34;5038966;28;20045;-43
2023/10/29 02:21:46;;;;;;;4.82;1.70;;;12.90;66.50;;;14.26;50.87;96116.53;5046826;28;20037;-43
2023/10/29 02:24:14;;;;;;;2.88;1.48;;;12.80;66.60;;;14.29;50.75;96120.63;5044508;28;20424;-42
2023/10/29 02:26:41;;;;;;;3.25;1.58;;;12.80;66.50;;;14.28;50.64;96119.78;5032443;28;20064;-45
2023/10/29 02:29:09;;;;;;;3.03;1.73;;;12.90;66.70;;;14.28;50.76;96122.47;5033566;28;20040;-44
2023/10/29 02:31:37;;;;;;;1.58;1.35;;;12.80;66.30;;;14.33;50.61;96111.13;5032005;28;20041;-42
2023/10/29 02:34:04;;;;;;;2.15;1.60;;;12.80;66.10;;;14.34;50.47;96102.84;5032216;28;20064;-43
2023/10/29 02:36:32;;;;;;;1.90;1.42;;;12.90;66.00;;;14.37;50.14;96104.28;5032200;28;20045;-42
2023/10/29 02:39:00;;;;;;;1.67;1.40;;;12.90;65.30;;;14.39;50.12;96096.84;5033343;28;20056;-42
2023/10/29 02:41:27;;;;;;;2.35;1.55;;;12.90;65.10;;;14.41;50.11;96102.78;5033037;28;20045;-42
2023/10/29 02:43:55;;;;;;;3.10;1.40;;;12.90;64.90;;;14.42;49.58;96095.56;5031974;28;20505;-43
2023/10/29 02:46:23;;;;;;;2.83;1.60;;;12.90;63.90;;;14.44;49.52;96102.31;5033287;28;20037;-45
2023/10/29 02:48:50;;;;;;;2.95;1.60;;;12.90;64.50;;;14.47;49.55;96112.59;5031577;28;20048;-43
2023/10/29 02:51:18;;;;;;;2.15;1.42;;;13.00;64.20;;;14.44;49.52;96102.31;5031600;28;20045;-43
2023/10/29 02:53:46;;;;;;;3.83;1.40;;;13.00;63.50;;;14.44;49.36;96090.81;5032843;28;20045;-43
2023/10/29 02:56:13;;;;;;;3.40;1.30;;;13.00;63.80;;;14.45;49.43;96090.59;5031811;28;20049;-44
2023/10/29 02:58:41;;;;;;;1.95;1.10;;;13.00;64.10;;;14.44;49.79;96080.09;5031735;28;20060;-45
2023/10/29 03:01:09;;;;;;;4.88;1.58;;;13.00;64.20;;;14.43;49.72;96098.03;5032634;28;20042;-42
2023/10/29 03:03:37;;;;;;;2.40;1.60;;;13.10;64.30;;;14.45;49.52;96095.94;5031520;28;20061;-45
2023/10/29 03:06:08;;;;;;;4.25;1.67;;;13.10;63.90;;;14.47;49.27;96101.09;5031593;28;20049;-43
2023/10/29 03:08:36;;;;;;;2.10;1.35;;;13.10;63.80;;;14.45;49.47;96106.66;5031453;28;20046;-47
2023/10/29 03:11:04;;;;;;;2.13;1.30;;;13.10;63.80;;;14.48;49.46;96110.72;5032330;28;20068;-43
2023/10/29 03:13:31;;;;;;;1.92;1.50;;;13.10;63.60;;;14.45;49.40;96119.22;5031523;28;20060;-42
2023/10/29 03:15:59;;;;;;;1.48;1.30;;;13.00;63.00;;;14.46;49.48;96104.78;5031336;28;20052;-43
2023/10/29 03:18:29;;;;;;;3.17;1.30;;;13.00;63.90;;;14.50;49.50;96105.97;5032721;28;20041;-44
2023/10/29 03:20:57;;;;;;;2.40;1.35;;;12.90;64.30;;;14.52;49.30;96104.72;5031228;28;20056;-43
2023/10/29 03:23:25;;;;;;;1.60;1.23;;;12.90;64.30;;;14.51;49.44;96105.75;5032493;28;20042;-44
2023/10/29 03:26:00;;;;;;;2.05;1.15;;;12.90;64.50;;;14.54;49.27;96112.53;5030879;28;20386;-44
2023/10/29 03:28:29;;;;;;;2.28;1.40;;;12.90;64.40;;;14.54;49.14;96104.50;5007617;28;20041;-43
2023/10/29 03:30:57;;;;;;;1.80;1.20;;;12.90;64.00;;;14.51;48.99;96105.75;5032145;28;20060;-44
2023/10/29 03:33:24;;;;;;;2.22;1.17;;;12.90;64.40;;;14.40;49.07;96103.81;5032557;28;20041;-45
2023/10/29 03:35:52;;;;;;;2.08;1.13;;;12.80;64.20;;;14.42;49.48;96101.72;5031225;28;20049;-42
2023/10/29 03:38:21;;;;;;;2.25;1.27;;;12.80;64.10;;;14.38;49.06;96101.38;5031579;28;20045;-43
2023/10/29 03:40:48;;;;;;;2.28;1.08;;;12.90;64.10;;;14.35;49.23;96098.34;5031993;28;20042;-43
2023/10/29 03:43:16;;;;;;;1.80;1.20;;;12.90;63.70;;;14.36;48.96;96095.44;5032308;28;20052;-43
2023/10/29 03:45:44;;;;;;;2.10;1.27;;;12.90;63.30;;;14.36;48.85;96092.75;5031159;28;20046;-42
2023/10/29 03:48:15;;;;;;;1.40;1.00;;;12.90;63.00;;;14.42;48.88;96099.06;5030949;28;20053;-43
2023/10/29 03:50:43;;;;;;;2.10;1.05;;;13.00;62.20;;;14.43;48.69;96091.88;5030405;28;20048;-42
2023/10/29 03:53:10;;;;;;;2.08;1.25;;;13.00;62.50;;;14.45;48.38;96095.94;5030316;28;20060;-44
2023/10/29 03:55:38;;;;;;;4.18;1.55;;;13.10;62.10;;;14.45;48.40;96098.63;5031018;28;20485;-44
2023/10/29 03:58:06;;;;;;;2.13;1.10;;;13.00;61.70;;;14.43;48.28;96103.38;5031877;28;20509;-46
2023/10/29 04:00:33;;;;;;;1.73;1.23;;;13.00;60.90;;;14.45;48.20;96095.13;5031757;28;20041;-45
2023/10/29 04:03:01;;;;;;;5.03;1.13;;;13.00;61.00;;;14.46;48.24;96102.09;5031787;28;20049;-44
2023/10/29 04:05:29;;;;;;;2.47;1.50;;;13.00;61.30;;;14.45;48.22;96098.63;5022914;28;20421;-47
2023/10/29 04:07:56;;;;;;;2.25;1.38;;;13.00;61.50;;;14.46;48.03;96108.31;5032111;28;20045;-48
2023/10/29 04:10:24;;;;;;;1.90;1.45;;;13.00;60.90;;;14.46;48.08;96110.97;5029998;28;20049;-45
2023/10/29 04:12:52;;;;;;;1.75;1.50;;;13.00;61.30;;;14.44;47.98;96107.69;5031568;28;20412;-45
2023/10/29 04:15:19;;;;;;;2.45;1.55;;;12.90;61.20;;;14.42;47.93;96091.03;5030239;28;20054;-46
2023/10/29 04:17:48;;;;;;;1.83;1.30;;;13.00;61.20;;;14.47;48.01;96095.72;5031318;28;20048;-47
2023/10/29 04:20:16;;;;;;;0.95;0.80;;;13.00;60.80;;;14.48;47.82;96095.50;5031126;28;20053;-45
2023/10/29 04:22:44;;;;;;;2.45;1.02;;;13.00;59.80;;;14.47;47.65;96093.06;5030449;28;20048;-45
2023/10/29 04:25:12;;;;;;;2.08;1.30;;;13.00;60.50;;;14.48;47.72;96098.19;5029962;28;20052;-44
2023/10/29 04:27:39;;;;;;;2.05;1.20;;;13.00;60.70;;;14.40;47.30;96087.75;5031278;28;20048;-45
2023/10/29 04:30:07;;;;;;;2.03;1.20;;;13.00;59.90;;;14.39;47.40;96096.84;5029844;28;20068;-44
2023/10/29 04:32:35;;;;;;;1.40;0.90;;;12.90;60.50;;;14.34;47.38;96099.34;5031211;28;20037;-46
2023/10/29 04:35:03;;;;;;;1.77;1.02;;;12.90;59.70;;;14.35;47.11;96087.63;5031435;28;20049;-45
2023/10/29 04:37:31;;;;;;;1.85;1.40;;;13.00;59.70;;;14.41;47.13;96085.91;5031228;28;20056;-49
2023/10/29 04:39:59;;;;;;;3.67;1.52;;;13.00;59.70;;;14.45;47.22;96089.78;5030693;28;20049;-46
2023/10/29 04:42:26;;;;;;;2.42;1.50;;;13.00;59.90;;;14.48;47.11;96090.16;5029914;28;20049;-43
2023/10/29 04:44:54;;;;;;;1.67;1.25;;;13.00;60.00;;;14.52;47.06;96096.69;5031152;28;20501;-43
2023/10/29 04:47:22;;;;;;;1.65;1.13;;;13.10;59.60;;;14.48;46.91;96094.66;5030881;28;20048;-48
2023/10/29 04:49:49;;;;;;;2.38;1.40;;;13.10;58.50;;;14.53;46.83;96094.81;5030437;28;20037;-44
2023/10/29 04:52:17;;;;;;;1.55;1.02;;;13.10;59.30;;;14.53;46.51;96084.94;5030928;28;20052;-44
2023/10/29 04:54:44;;;;;;;1.52;1.17;;;13.00;57.70;;;14.53;46.56;96084.13;5030766;28;20033;-44
2023/10/29 04:57:13;;;;;;;2.00;1.42;;;13.00;58.80;;;14.50;46.59;96092.59;5030905;28;20409;-47
2023/10/29 04:59:40;;;;;;;1.50;1.40;;;13.00;58.20;;;14.48;46.49;96075.94;5030994;28;20048;-46
2023/10/29 05:02:08;;;;;;;3.78;1.38;;;13.10;58.00;;;14.48;46.55;96075.94;5030836;28;20042;-45
2023/10/29 05:04:36;;;;;;;2.38;1.10;;;13.10;58.50;;;14.51;46.56;96064.78;5023155;28;20045;-44
2023/10/29 05:07:03;;;;;;;2.55;1.23;;;13.10;58.80;;;14.57;46.55;96063.91;5030865;28;20042;-48
2023/10/29 05:09:31;;;;;;;1.52;1.13;;;13.20;58.70;;;14.57;46.51;96053.19;5030666;28;20508;-42
2023/10/29 05:11:59;;;;;;;2.50;1.50;;;13.20;58.80;;;14.62;46.40;96052.50;5030650;28;20049;-44
2023/10/29 05:14:26;;;;;;;2.03;1.20;;;13.20;58.70;;;14.67;46.34;96039.25;5029439;28;20425;-42
2023/10/29 05:16:54;;;;;;;2.15;1.10;;;13.30;58.60;;;14.62;46.31;96048.00;5030595;28;20045;-45
2023/10/29 05:19:22;;;;;;;1.27;0.93;;;13.20;57.90;;;14.68;46.21;96047.09;5029491;28;20049;-44
2023/10/29 05:21:50;;;;;;;2.05;1.20;;;13.30;58.60;;;14.72;46.28;96044.78;5030695;28;20049;-42
2023/10/29 05:24:18;;;;;;;1.52;1.15;;;13.30;58.70;;;14.69;46.29;96046.03;5030679;28;20053;-46
2023/10/29 05:26:45;;;;;;;2.53;1.33;;;13.30;58.40;;;14.70;46.03;96049.53;5030021;28;20045;-43
2023/10/29 05:29:13;;;;;;;3.95;1.30;;;13.30;58.50;;;14.71;46.09;96046.66;5030686;28;20037;-42
2023/10/29 05:31:41;;;;;;;1.17;1.08;;;13.30;58.50;;;14.75;46.06;96052.34;5030251;28;20515;-45
2023/10/29 05:34:08;;;;;;;3.90;1.08;;;13.30;58.50;;;14.69;46.12;96048.69;5029510;28;20045;-44
2023/10/29 05:36:36;;;;;;;3.15;1.08;;;13.30;57.40;;;14.64;46.09;96059.28;5030742;28;20052;-44
2023/10/29 05:39:06;;;;;;;2.50;1.25;;;13.30;58.20;;;14.49;45.98;96058.84;5029518;28;20045;-44
2023/10/29 05:41:34;;;;;;;1.40;1.23;;;13.20;57.50;;;14.47;46.07;96067.09;5030280;28;20041;-42
2023/10/29 05:44:02;;;;;;;1.45;1.00;;;13.20;57.30;;;14.50;46.06;96066.66;5030509;28;20054;-46
2023/10/29 05:46:29;;;;;;;2.70;1.40;;;13.20;57.30;;;14.45;46.28;96069.16;5030740;28;20045;-44
2023/10/29 05:48:57;;;;;;;3.45;1.50;;;13.20;58.60;;;14.52;46.41;96064.56;5030350;28;20421;-43
2023/10/29 05:51:25;;;;;;;4.68;1.38;;;13.20;58.30;;;14.59;46.26;96067.19;5030132;28;20155;-46
2023/10/29 05:53:52;;;;;;;1.83;1.13;;;13.30;58.20;;;14.67;46.08;96060.69;5030591;28;20446;-43
2023/10/29 05:56:20;;;;;;;2.60;1.10;;;13.30;58.10;;;14.73;46.03;96060.63;5030409;28;20216;-45
2023/10/29 05:58:48;;;;;;;2.53;1.30;;;13.40;58.10;;;14.80;46.00;96063.19;5028972;28;20093;-46
2023/10/29 06:01:16;;;;;;;17.42;1.85;;;13.50;57.60;;;14.82;45.83;96077.19;5032398;28;20060;-43
2023/10/29 06:03:43;;;;;;;1.35;1.13;;;13.50;57.90;;;14.83;45.92;96078.84;5033004;28;20052;-43
2023/10/29 06:06:11;;;;;;;1.42;1.23;;;13.50;57.90;;;14.87;45.94;96065.78;5033896;28;20052;-42
2023/10/29 06:08:39;;;;;;;2.78;1.30;;;13.50;58.10;;;14.88;45.87;96075.47;5033892;28;20046;-43
2023/10/29 06:11:07;;;;;;;1.83;1.10;;;13.60;57.90;;;14.82;45.89;96079.88;5032626;28;20064;-44
2023/10/29 06:13:34;;;;;;;1.70;1.10;;;13.50;57.80;;;14.72;45.78;96088.44;5033776;28;20076;-47
2023/10/29 06:16:08;;;;;;;1.63;1.10;;;13.40;57.60;;;14.79;45.79;96087.53;5033958;28;20056;-43
2023/10/29 06:18:35;;;;;;;1.45;1.00;;;13.40;57.20;;;14.79;45.98;96092.88;5033609;28;20049;-44
2023/10/29 06:21:03;;;;;;;1.25;1.05;;;13.40;57.90;;;14.84;46.00;96091.19;5033296;28;20053;-44
2023/10/29 06:23:31;;;;;;;3.10;1.65;;;13.50;58.10;;;14.86;46.13;96097.13;5032462;28;20469;-44
2023/10/29 06:25:59;;;;;;;5.53;2.60;;;13.50;58.20;;;14.75;45.85;96101.41;5033563;28;20034;-43
2023/10/29 06:28:26;;;;;;;4.32;2.33;;;13.50;57.40;;;14.76;45.71;96110.25;5033330;28;20413;-42
2023/10/29 06:30:54;;;;;;;4.47;2.65;;;13.50;57.30;;;14.71;46.11;96110.09;5033287;28;20052;-45
2023/10/29 06:33:22;;;;;;;6.38;3.92;;;13.40;57.90;;;14.77;46.01;96110.03;5033470;28;20052;-41
2023/10/29 06:35:49;;;;;;;6.05;3.33;;;13.50;57.90;;;14.74;46.22;96121.19;5032153;28;20046;-45
2023/10/29 06:38:17;;;;;;;6.60;2.83;;;13.50;57.90;;;14.80;46.03;96130.19;5033293;28;20509;-41
2023/10/29 06:40:45;;;;;;;4.03;2.55;;;13.50;57.70;;;14.88;45.99;96123.69;5032934;28;20042;-43
2023/10/29 06:43:12;;;;;;;3.47;2.50;;;13.60;58.00;;;14.85;45.99;96132.16;5033539;28;20088;-42
2023/10/29 06:45:40;;;;;;;4.05;2.05;;;13.50;58.10;;;14.78;46.05;96142.97;5033520;28;20064;-45
2023/10/29 06:48:08;;;;;;;2.60;1.80;;;13.50;57.60;;;14.81;46.00;96147.91;5033200;28;20520;-43
2023/10/29 06:50:36;;;;;;;5.05;2.25;;;13.50;57.90;;;14.77;46.21;96152.88;5033209;28;20046;-43
2023/10/29 06:53:05;;;;;;;5.43;2.80;;;13.60;57.90;;;14.80;46.15;96154.28;5033172;28;20053;-44
2023/10/29 06:55:35;;;;;;;5.57;2.47;;;13.60;58.10;;;14.70;46.33;96159.34;5032874;28;20041;-42
2023/10/29 06:58:04;;;;;;;3.40;2.05;;;13.60;58.00;;;14.76;46.46;96172.66;5033063;28;20041;-42
2023/10/29 07:00:31;;;;;;;3.03;1.67;;;13.60;58.40;;;14.90;46.24;96175.19;5032722;28;20064;-41
2023/10/29 07:02:59;;;;;;;3.13;2.40;;;13.60;58.00;;;14.96;46.30;96182.31;5033116;28;20045;-47
2023/10/29 07:05:27;;;;;;;2.40;1.50;;;13.70;58.10;;;14.98;46.23;96188.28;5032841;28;20056;-45
2023/10/29 07:07:55;;;;;;;4.43;1.85;;;13.70;58.20;;;15.03;46.20;96191.13;5032625;28;20528;-45
2023/10/29 07:10:23;;;;;;;2.88;1.52;;;13.80;58.20;;;15.12;46.17;96199.66;5031019;28;20053;-45
2023/10/29 07:12:53;;;;;;;1.77;1.30;;;13.80;58.10;;;15.14;46.10;96200.25;5032461;28;20049;-44
2023/10/29 07:15:20;;;;;;;1.77;1.27;;;13.80;57.90;;;15.11;46.09;96200.72;5032824;28;20437;-41
2023/10/29 07:17:48;;;;;;;1.85;1.33;;;13.80;58.10;;;15.15;46.29;96205.38;5032610;28;20056;-42
2023/10/29 07:20:15;;;;;;;3.00;1.92;;;13.80;58.80;;;15.10;46.40;96204.41;5032335;28;20401;-42
2023/10/29 07:22:43;;;;;;;3.20;2.10;;;13.70;58.80;;;15.14;46.30;96200.25;5031204;28;20049;-43
2023/10/29 07:25:11;;;;;;;2.42;1.80;;;13.80;58.70;;;15.05;46.18;96207.78;5028931;28;20428;-45
2023/10/29 07:27:39;;;;;;;1.88;1.38;;;13.70;58.60;;;15.14;46.28;96200.25;5032324;28;20413;-44
2023/10/29 07:30:07;;;;;;;1.50;1.27;;;13.80;58.70;;;15.16;46.32;96204.34;5032058;28;20041;-43
2023/10/29 07:32:35;;;;;;;1.98;1.38;;;13.80;58.90;;;15.13;46.56;96212.03;5032260;28;20049;-46
2023/10/29 07:35:03;;;;;;;3.45;1.30;;;13.80;59.00;;;15.16;46.24;96204.34;5028359;28;20045;-43
2023/10/29 07:37:31;;;;;;;2.13;1.30;;;13.80;59.00;;;15.23;46.67;96219.53;5030326;28;20045;-42
2023/10/29 07:39:59;;;;;;;1.38;1.13;;;13.80;59.50;;;15.24;46.67;96227.34;5031028;28;20048;-43
2023/10/29 07:42:27;;;;;;;1.70;1.10;;;13.80;59.70;;;15.25;46.83;96223.63;5030927;28;20060;-42
2023/10/29 07:44:54;;;;;;;1.95;1.10;;;13.80;59.90;;;15.23;46.61;96235.63;5030843;28;20045;-46
2023/10/29 07:47:22;;;;;;;2.72;1.25;;;13.80;59.70;;;15.24;46.90;96237.28;5029818;28;20052;-44
2023/10/29 07:49:50;;;;;;;2.00;1.20;;;13.80;59.90;;;15.30;46.68;96257.81;5030482;28;20044;-44
2023/10/29 07:52:17;;;;;;;1.83;1.10;;;13.80;59.90;;;15.35;46.51;96263.31;5030770;28;20052;-42
2023/10/29 07:54:45;;;;;;;14.05;5.95;;;13.90;59.70;;;15.34;46.98;96262.50;5030797;28;20057;-42
2023/10/29 07:57:13;;;;;;;4.30;2.33;;;13.90;60.10;;;15.34;46.89;96253.63;5028908;28;20465;-43
2023/10/29 07:59:41;;;;;;;3.33;1.40;;;13.90;60.20;;;15.35;47.03;96260.63;5028556;28;20425;-43
2023/10/29 08:02:09;;;;;;;3.20;1.40;;;13.90;60.40;;;15.38;47.19;96254.00;5029269;28;20497;-43
2023/10/29 08:04:36;;;;;;;1.38;1.23;;;13.90;60.70;;;15.31;47.07;96254.88;5030902;28;20496;-43
2023/10/29 08:07:04;;;;;;;2.15;1.15;;;13.90;60.60;;;15.37;47.10;96258.53;5030569;28;20501;-43
2023/10/29 08:09:32;;;;;;;2.72;1.35;;;13.90;60.90;;;15.44;47.26;96261.16;5030019;28;20466;-44
2023/10/29 08:12:00;;;;;;;1.58;1.13;;;13.90;61.00;;;15.48;47.01;96265.00;5030616;28;20041;-42
2023/10/29 08:14:28;;;;;;;1.58;1.40;;;14.00;60.80;;;15.52;47.23;96263.50;5029897;28;20041;-46
2023/10/29 08:16:56;;;;;;;1.70;1.17;;;14.00;61.00;;;15.56;47.18;96262.81;5030517;28;20516;-42
2023/10/29 08:19:26;;;;;;;4.68;1.50;;;14.00;61.00;;;15.61;47.33;96247.94;5028970;28;20609;-44
2023/10/29 08:21:54;;;;;;;5.45;1.30;;;14.10;61.60;;;15.64;47.34;96266.25;5029769;28;20052;-45
2023/10/29 08:24:21;;;;;;;3.53;2.03;;;14.10;61.40;;;15.63;47.56;96275.34;5027475;28;20564;-42
2023/10/29 08:26:49;;;;;;;1.95;1.27;;;14.10;62.10;;;15.66;47.87;96288.28;5029707;28;20429;-43
2023/10/29 08:29:17;;;;;;;5.55;1.10;;;14.10;62.90;;;15.68;48.04;96281.69;5030301;28;20042;-46
2023/10/29 08:31:45;;;;;;;1.90;1.00;;;14.10;63.00;;;15.71;47.88;96283.91;5028578;28;20135;-45
2023/10/29 08:34:12;;;;;;;1.77;1.30;;;14.20;63.20;;;15.72;48.39;96284.69;5030334;28;20048;-43
2023/10/29 08:36:40;;;;;;;1.30;1.17;;;14.20;63.50;;;15.72;47.96;96284.69;5030079;28;20493;-44
2023/10/29 08:39:09;;;;;;;1.42;1.17;;;14.10;63.40;;;15.74;48.18;96285.31;5029953;28;20053;-42
2023/10/29 08:41:36;;;;;;;7.78;1.52;;;14.10;64.00;;;15.75;48.31;96277.06;5027993;28;20057;-42
2023/10/29 08:44:04;;;;;;;1.90;1.27;;;14.10;64.40;;;15.78;49.13;96261.53;5028917;28;20049;-44
2023/10/29 08:46:32;;;;;;;3.05;1.80;;;14.10;66.00;;;15.79;49.49;96255.97;5028706;28;20052;-42
2023/10/29 08:49:00;;;;;;;3.25;1.65;;;14.20;66.40;;;15.82;49.53;96254.66;5029803;28;20061;-42
2023/10/29 08:51:27;;;;;;;3.13;2.00;;;14.30;66.80;;;15.83;49.99;96251.78;5029791;28;20463;-43
2023/10/29 08:53:57;;;;;;;2.88;1.83;;;14.30;67.20;;;15.83;50.08;96242.91;5029354;28;20151;-44
2023/10/29 08:56:24;;;;;;;3.33;1.92;;;14.30;67.60;;;15.84;49.79;96241.84;5030371;28;20050;-44
2023/10/29 08:58:52;;;;;;;2.42;1.77;;;14.30;66.60;;;15.80;49.71;96243.34;5029534;28;20049;-43
2023/10/29 09:01:20;;;;;;;2.42;1.63;;;14.30;66.80;;;15.80;49.98;96237.97;5029544;28;20057;-44
2023/10/29 09:03:48;;;;;;;2.38;1.40;;;14.30;66.60;;;15.82;49.78;96239.41;5030108;28;20045;-45
2023/10/29 09:06:16;;;;;;;1.35;1.10;;;14.30;66.50;;;15.85;49.71;96233.56;5029321;28;20418;-44
2023/10/29 09:08:43;;;;;;;2.10;1.20;;;14.30;65.90;;;15.86;49.33;96234.41;5029614;28;20049;-44
2023/10/29 09:11:14;;;;;;;1.73;1.35;;;14.30;65.20;;;15.87;49.40;96227.97;5029461;28;20385;-43
2023/10/29 09:13:42;;;;;;;1.50;1.20;;;14.40;64.60;;;15.87;49.14;96228.78;5028508;28;20038;-45
2023/10/29 09:16:11;;;;;;;1.60;1.15;;;14.40;64.60;;;15.91;49.29;96240.69;5029711;28;20041;-48
2023/10/29 09:18:39;;;;;;;2.33;1.52;;;14.50;64.80;;;15.93;49.16;96216.31;5029256;28;20041;-44
2023/10/29 09:21:07;;;;;;;2.45;1.50;;;14.50;64.50;;;15.92;49.16;96220.88;5029847;28;20042;-44
2023/10/29 09:23:35;;;;;;;3.10;1.83;;;14.50;63.70;;;15.93;48.89;96216.31;5030335;28;20041;-43
2023/10/29 09:26:03;;;;;;;3.15;1.73;;;14.60;63.50;;;15.94;49.33;96218.78;5030647;28;20046;-45
2023/10/29 09:28:30;;;;;;;2.20;1.30;;;14.60;63.90;;;15.98;49.00;96219.16;5029208;28;20040;-43
2023/10/29 09:30:58;;;;;;;1.67;1.40;;;14.70;63.60;;;15.96;48.91;96207.81;5028949;28;20079;-46
2023/10/29 09:33:25;;;;;;;1.80;1.35;;;14.70;63.20;;;15.96;49.11;96209.69;5029852;28;20053;-44
2023/10/29 09:35:53;;;;;;;2.38;1.80;;;14.70;63.00;;;15.96;48.90;96226.63;5032746;28;20046;-47
2023/10/29 09:38:21;;;;;;;2.55;1.48;;;14.70;62.90;;;15.94;49.00;96218.78;5034403;28;20042;-46
2023/10/29 09:40:53;;;;;;;1.55;1.38;;;14.70;63.20;;;15.98;49.60;96215.66;5032904;28;20041;-43
2023/10/29 09:43:31;;;;;;;3.95;1.55;;;14.70;64.40;;;16.01;49.69;96213.31;5034258;28;20048;-43
2023/10/29 09:46:04;;;;;;;3.28;1.83;;;14.70;64.80;;;16.02;49.96;96208.78;5034217;28;20048;-44
2023/10/29 09:48:34;;;;;;;4.65;1.55;;;14.70;66.20;;;16.05;50.34;96211.81;5033167;28;20417;-45
2023/10/29 09:51:04;;;;;;;2.55;1.38;;;14.60;67.00;;;16.08;49.95;96219.41;5034108;28;20041;-44
2023/10/29 09:53:35;;;;;;;2.28;1.48;;;14.70;66.30;;;16.05;50.19;96202.94;5033263;28;20072;-43
2023/10/29 09:56:08;;;;;;;2.42;1.42;;;14.70;66.30;;;16.03;50.45;96196.97;5035137;28;20060;-47
2023/10/29 09:58:36;;;;;;;2.43;1.70;;;14.70;66.60;;;16.03;50.60;96195.13;5034335;28;20037;-45
2023/10/29 10:01:05;;;;;;;3.75;1.67;;;14.70;66.50;;;16.06;50.81;96199.22;5024750;28;20295;-41
2023/10/29 10:03:32;;;;;;;2.15;1.55;;;14.70;67.20;;;16.05;50.93;96198.41;5033895;28;20041;-48
2023/10/29 10:06:01;;;;;;;2.45;1.80;;;14.70;67.20;;;16.08;51.17;96197.09;5033748;28;20049;-45
2023/10/29 10:08:30;;;;;;;2.47;1.67;;;14.70;68.50;;;16.10;51.27;96200.38;5033742;28;20038;-46
2023/10/29 10:10:59;;;;;;;2.05;1.58;;;14.70;68.30;;;16.15;51.66;96208.56;5033653;28;20056;-45
2023/10/29 10:13:38;;;;;;;3.00;1.92;;;14.80;69.40;;;16.21;51.55;96218.38;5032543;28;20045;-45
2023/10/29 10:16:14;;;;;;;3.33;1.90;;;14.80;70.10;;;16.26;51.84;96205.06;5024846;28;20041;-45
2023/10/29 10:18:50;;;;;;;4.28;1.75;;;14.80;70.30;;;16.29;51.97;96198.41;5033679;28;20427;-45
2023/10/29 10:21:23;;;;;;;13.73;8.88;;;14.80;71.00;;;16.30;51.81;96191.97;5033363;28;20041;-48
2023/10/29 10:23:56;;;;;;;7.25;5.85;;;14.80;70.00;;;16.29;52.15;96188.50;5033352;28;20045;-43